Time;durP1;ratioP1;P1;durP2;ratioP2;P2;SDS_P1;SDS_P2;PMS_P1;PMS_P2;Temp;Humidity;BMP_temperature;BMP_pressure;BME280_temperature;BME280_humidity;BME280_pressure;Samples;Min_cycle;Max_cycle;Signal;HPM_P1;HPM_P2
2021/09/13 00:00:50;;;;;;;7.45;4.47;;;;;;;;;;4992626;28;20054;-68
2021/09/13 00:03:19;;;;;;;7.45;4.07;;;;;;;;;;4991214;28;20467;-68
2021/09/13 00:05:49;;;;;;;5.75;3.90;;;;;;;;;;4992133;28;20162;-70
2021/09/13 00:08:17;;;;;;;6.95;4.05;;;;;;;;;;4990845;28;20050;-68
2021/09/13 00:10:46;;;;;;;6.32;4.63;;;;;;;;;;4990835;28;20229;-68
2021/09/13 00:13:15;;;;;;;5.95;4.22;;;;;;;;;;4991073;28;20042;-70
2021/09/13 00:15:43;;;;;;;6.28;4.18;;;;;;;;;;4992384;28;20406;-68
2021/09/13 00:18:11;;;;;;;6.05;4.47;;;;;;;;;;4990394;28;20050;-73
2021/09/13 00:20:40;;;;;;;6.18;4.43;;;;;;;;;;4991192;28;20081;-70
2021/09/13 00:23:09;;;;;;;7.22;3.92;;;;;;;;;;4990175;28;20234;-71
2021/09/13 00:25:37;;;;;;;8.32;3.90;;;;;;;;;;4991877;28;20046;-69
2021/09/13 00:28:06;;;;;;;5.53;4.07;;;;;;;;;;4991058;28;20051;-68
2021/09/13 00:30:34;;;;;;;6.57;4.28;;;;;;;;;;4991211;28;20049;-68
2021/09/13 00:33:03;;;;;;;6.10;3.90;;;;;;;;;;4989286;28;20048;-69
2021/09/13 00:35:31;;;;;;;5.75;4.25;;;;;;;;;;4990717;28;20419;-72
2021/09/13 00:37:59;;;;;;;8.95;5.22;;;;;;;;;;4992000;28;20418;-68
2021/09/13 00:40:29;;;;;;;5.65;3.88;;;;;;;;;;4976147;28;20133;-71
2021/09/13 00:42:57;;;;;;;9.93;5.30;;;;;;;;;;4991101;28;20050;-69
2021/09/13 00:45:25;;;;;;;6.18;4.13;;;;;;;;;;4990515;28;20042;-69
2021/09/13 00:47:53;;;;;;;8.05;4.60;;;;;;;;;;4990585;28;20414;-68
2021/09/13 00:50:21;;;;;;;6.70;4.60;;;;;;;;;;4991767;28;20042;-69
2021/09/13 00:52:52;;;;;;;6.85;4.57;;;;;;;;;;4991576;28;20097;-68
2021/09/13 00:55:21;;;;;;;8.82;4.50;;;;;;;;;;4990294;28;20471;-69
2021/09/13 00:57:51;;;;;;;6.50;4.43;;;;;;;;;;4991400;28;20061;-68
2021/09/13 01:00:20;;;;;;;6.80;4.45;;;;;;;;;;4991565;28;20078;-68
2021/09/13 01:02:48;;;;;;;9.85;4.47;;;;;;;;;;4991570;28;20060;-68
2021/09/13 01:05:27;;;;;;;9.40;4.70;;;;;;;;;;4967972;28;20043;-68
2021/09/13 01:07:55;;;;;;;7.00;4.40;;;;;;;;;;4971551;28;20173;-68
2021/09/13 01:10:24;;;;;;;13.13;3.88;;;;;;;;;;4971541;28;20065;-68
2021/09/13 01:12:53;;;;;;;7.28;4.57;;;;;;;;;;4971963;28;20411;-68
2021/09/13 01:15:21;;;;;;;7.32;4.72;;;;;;;;;;4970322;28;20047;-68
2021/09/13 01:17:50;;;;;;;7.35;4.63;;;;;;;;;;4970719;28;20479;-68
2021/09/13 01:20:19;;;;;;;7.80;4.88;;;;;;;;;;4971185;28;20081;-68
2021/09/13 01:22:49;;;;;;;8.25;4.90;;;;;;;;;;4975238;28;20054;-68
2021/09/13 01:25:18;;;;;;;6.65;4.07;;;;;;;;;;4970891;28;20520;-68
2021/09/13 01:27:47;;;;;;;6.32;4.78;;;;;;;;;;4969915;28;20047;-68
2021/09/13 01:30:16;;;;;;;7.05;4.70;;;;;;;;;;4971229;28;20133;-68
2021/09/13 01:32:44;;;;;;;8.98;4.65;;;;;;;;;;4970826;28;20126;-68
2021/09/13 01:35:12;;;;;;;9.98;4.75;;;;;;;;;;4971214;28;20530;-68
2021/09/13 01:37:40;;;;;;;6.85;5.10;;;;;;;;;;4969815;28;20055;-69
2021/09/13 01:40:09;;;;;;;6.50;4.45;;;;;;;;;;4957658;28;20535;-69
2021/09/13 01:42:39;;;;;;;7.57;4.40;;;;;;;;;;4974078;28;20109;-68
2021/09/13 01:45:08;;;;;;;6.82;4.80;;;;;;;;;;4973327;28;20049;-68
2021/09/13 01:47:36;;;;;;;9.15;4.18;;;;;;;;;;4974345;28;20130;-68
2021/09/13 01:50:04;;;;;;;6.78;4.35;;;;;;;;;;4975429;28;20142;-69
2021/09/13 01:52:33;;;;;;;7.95;5.03;;;;;;;;;;4974488;28;20142;-69
2021/09/13 01:55:01;;;;;;;5.95;4.25;;;;;;;;;;4975651;28;20117;-68
2021/09/13 01:57:29;;;;;;;9.02;4.70;;;;;;;;;;4974438;28;20494;-69
2021/09/13 01:59:59;;;;;;;9.60;4.55;;;;;;;;;;4974089;28;20392;-68
2021/09/13 02:02:27;;;;;;;6.32;4.63;;;;;;;;;;4973994;28;20042;-68
2021/09/13 02:04:55;;;;;;;8.85;4.22;;;;;;;;;;4973448;28;20098;-69
2021/09/13 02:07:24;;;;;;;7.47;4.43;;;;;;;;;;4969574;28;20137;-69
2021/09/13 02:09:53;;;;;;;6.32;4.30;;;;;;;;;;4974446;28;20109;-69
2021/09/13 02:12:22;;;;;;;7.75;4.15;;;;;;;;;;4973772;28;20057;-69
2021/09/13 02:14:50;;;;;;;8.45;5.07;;;;;;;;;;4973888;28;20057;-69
2021/09/13 02:17:20;;;;;;;5.72;4.45;;;;;;;;;;4973145;28;20042;-68
2021/09/13 02:19:48;;;;;;;6.85;4.40;;;;;;;;;;4972511;28;20499;-68
2021/09/13 02:22:16;;;;;;;5.65;4.00;;;;;;;;;;4973217;28;20392;-68
2021/09/13 02:24:45;;;;;;;6.55;3.83;;;;;;;;;;4973536;28;20058;-69
2021/09/13 02:27:13;;;;;;;5.80;3.92;;;;;;;;;;4973598;28;20406;-69
2021/09/13 02:29:41;;;;;;;6.03;3.95;;;;;;;;;;4974687;28;20050;-68
2021/09/13 02:32:09;;;;;;;5.80;3.88;;;;;;;;;;4976077;28;20070;-69
2021/09/13 02:34:39;;;;;;;7.35;4.50;;;;;;;;;;4972398;28;20047;-69
2021/09/13 02:37:07;;;;;;;7.93;4.30;;;;;;;;;;4974053;28;20145;-69
2021/09/13 02:39:35;;;;;;;8.73;4.72;;;;;;;;;;4973633;28;20046;-69
2021/09/13 02:42:04;;;;;;;6.07;4.22;;;;;;;;;;4973177;28;20141;-68
2021/09/13 02:44:32;;;;;;;6.82;4.35;;;;;;;;;;4972359;28;20061;-69
2021/09/13 02:47:01;;;;;;;5.47;4.05;;;;;;;;;;4972155;28;20039;-69
2021/09/13 02:49:30;;;;;;;6.85;4.30;;;;;;;;;;4973260;28;20081;-69
2021/09/13 02:51:59;;;;;;;7.57;4.47;;;;;;;;;;4973396;28;20049;-69
2021/09/13 02:54:27;;;;;;;7.05;4.47;;;;;;;;;;4963386;28;20053;-69
2021/09/13 02:56:56;;;;;;;6.78;4.28;;;;;;;;;;4974015;28;20055;-69
2021/09/13 02:59:24;;;;;;;6.70;4.63;;;;;;;;;;4973486;28;20129;-68
2021/09/13 03:01:52;;;;;;;7.60;5.00;;;;;;;;;;4973731;28;20185;-69
2021/09/13 03:04:21;;;;;;;8.27;5.05;;;;;;;;;;4971661;28;20055;-69
2021/09/13 03:06:51;;;;;;;9.25;4.07;;;;;;;;;;4971366;28;20134;-69
2021/09/13 03:09:20;;;;;;;7.40;3.97;;;;;;;;;;4971948;28;20097;-69
2021/09/13 03:11:48;;;;;;;5.40;4.03;;;;;;;;;;4972976;28;20562;-69
2021/09/13 03:14:17;;;;;;;5.97;4.15;;;;;;;;;;4972827;28;20047;-69
2021/09/13 03:16:45;;;;;;;7.05;4.47;;;;;;;;;;4973013;28;20055;-69
2021/09/13 03:19:13;;;;;;;9.35;5.22;;;;;;;;;;4972465;28;20138;-69
2021/09/13 03:21:46;;;;;;;8.93;5.65;;;;;;;;;;4973416;28;20066;-69
2021/09/13 03:24:14;;;;;;;9.40;5.13;;;;;;;;;;4972595;28;20051;-69
2021/09/13 03:26:47;;;;;;;8.75;5.05;;;;;;;;;;1400414;28;10022780;-69
2021/09/13 03:29:16;;;;;;;7.90;5.60;;;;;;;;;;3940649;28;10001532;-69
2021/09/13 03:31:44;;;;;;;8.07;5.30;;;;;;;;;;4974926;28;20049;-69
2021/09/13 03:34:12;;;;;;;9.80;5.85;;;;;;;;;;4971838;28;20507;-69
2021/09/13 03:36:40;;;;;;;11.32;5.03;;;;;;;;;;4972212;28;20178;-69
2021/09/13 03:39:09;;;;;;;8.93;5.10;;;;;;;;;;4971968;28;20571;-69
2021/09/13 03:41:37;;;;;;;6.75;4.70;;;;;;;;;;4972975;28;20043;-69
2021/09/13 03:44:07;;;;;;;10.35;5.57;;;;;;;;;;4968720;28;20376;-69
2021/09/13 03:46:35;;;;;;;8.00;4.85;;;;;;;;;;4971341;28;20053;-69
2021/09/13 03:49:03;;;;;;;6.57;4.70;;;;;;;;;;4972875;28;20113;-69
2021/09/13 03:51:32;;;;;;;6.95;4.88;;;;;;;;;;4971843;28;20554;-69
2021/09/13 03:54:01;;;;;;;6.80;4.90;;;;;;;;;;4972612;28;20093;-69
2021/09/13 03:56:29;;;;;;;6.45;4.75;;;;;;;;;;4972386;28;20050;-69
2021/09/13 03:58:57;;;;;;;8.20;4.72;;;;;;;;;;4972653;28;20058;-69
2021/09/13 04:01:27;;;;;;;8.32;4.10;;;;;;;;;;4970542;28;20509;-69
2021/09/13 04:03:59;;;;;;;8.82;4.60;;;;;;;;;;4971475;28;20050;-69
2021/09/13 04:06:38;;;;;;;8.60;4.68;;;;;;;;;;4972045;28;20146;-69
2021/09/13 04:11:55;;;;;;;8.52;5.28;;;;;;;;;;4971137;28;20499;-68
2021/09/13 04:14:23;;;;;;;8.45;4.95;;;;;;;;;;4971974;28;20083;-68
2021/09/13 04:16:53;;;;;;;7.07;4.55;;;;;;;;;;4971188;28;20057;-68
2021/09/13 04:19:22;;;;;;;7.15;4.85;;;;;;;;;;4971918;28;20367;-68
2021/09/13 04:21:50;;;;;;;6.85;4.40;;;;;;;;;;4966012;28;20053;-68
2021/09/13 04:24:19;;;;;;;7.75;4.57;;;;;;;;;;4971657;28;20051;-68
2021/09/13 04:26:47;;;;;;;9.15;5.03;;;;;;;;;;4972186;28;20407;-68
2021/09/13 04:29:15;;;;;;;7.40;4.90;;;;;;;;;;4971494;28;20142;-68
2021/09/13 04:31:43;;;;;;;9.40;5.05;;;;;;;;;;4971197;28;20042;-69
2021/09/13 04:34:13;;;;;;;7.25;4.75;;;;;;;;;;4964527;28;20047;-69
2021/09/13 04:36:42;;;;;;;8.52;4.32;;;;;;;;;;4968239;28;20149;-68
2021/09/13 04:39:10;;;;;;;7.80;4.68;;;;;;;;;;4967091;28;20051;-68
2021/09/13 04:41:38;;;;;;;7.95;4.75;;;;;;;;;;4970137;28;20047;-69
2021/09/13 04:44:06;;;;;;;9.65;4.90;;;;;;;;;;4971154;28;20053;-69
2021/09/13 04:46:35;;;;;;;6.50;4.07;;;;;;;;;;4969167;28;20110;-69
2021/09/13 04:49:03;;;;;;;10.68;4.95;;;;;;;;;;4971006;28;20051;-68
2021/09/13 04:51:33;;;;;;;7.10;4.25;;;;;;;;;;4971531;28;20149;-69
2021/09/13 04:54:01;;;;;;;6.72;4.47;;;;;;;;;;4970799;28;20049;-69
2021/09/13 04:56:29;;;;;;;8.32;4.72;;;;;;;;;;4970967;28;20069;-69
2021/09/13 04:58:58;;;;;;;9.57;5.05;;;;;;;;;;4968873;28;20588;-68
2021/09/13 05:01:26;;;;;;;8.25;5.13;;;;;;;;;;4959888;28;20112;-68
2021/09/13 05:03:54;;;;;;;6.95;4.53;;;;;;;;;;4966745;28;20399;-68
2021/09/13 05:06:23;;;;;;;9.07;4.68;;;;;;;;;;4967556;28;20507;-68
2021/09/13 05:08:52;;;;;;;6.63;4.80;;;;;;;;;;4967118;28;20421;-68
2021/09/13 05:11:21;;;;;;;10.27;4.97;;;;;;;;;;4965668;28;20118;-68
2021/09/13 05:13:51;;;;;;;8.73;4.93;;;;;;;;;;4966396;28;20482;-68
2021/09/13 05:16:19;;;;;;;8.57;4.70;;;;;;;;;;4967436;28;20487;-68
2021/09/13 05:18:47;;;;;;;8.35;4.95;;;;;;;;;;4966522;28;20047;-68
2021/09/13 05:21:16;;;;;;;8.38;4.78;;;;;;;;;;4967542;28;20061;-69
2021/09/13 05:23:44;;;;;;;7.15;4.63;;;;;;;;;;4966496;28;20059;-68
2021/09/13 05:26:14;;;;;;;6.93;4.43;;;;;;;;;;4966565;28;20399;-68
2021/09/13 05:28:43;;;;;;;8.25;5.05;;;;;;;;;;4967577;28;20357;-68
2021/09/13 05:31:11;;;;;;;9.75;4.72;;;;;;;;;;4968658;28;20059;-68
2021/09/13 05:33:39;;;;;;;7.85;5.03;;;;;;;;;;4972390;28;20046;-69
2021/09/13 05:36:08;;;;;;;9.48;5.00;;;;;;;;;;4979337;28;20117;-68
2021/09/13 05:38:36;;;;;;;8.60;5.93;;;;;;;;;;4965920;28;20765;-68
2021/09/13 05:41:05;;;;;;;7.57;4.90;;;;;;;;;;4960034;28;20097;-68
2021/09/13 05:43:34;;;;;;;8.15;4.95;;;;;;;;;;4955168;28;20053;-68
2021/09/13 05:46:02;;;;;;;7.65;5.30;;;;;;;;;;4968444;28;20142;-68
2021/09/13 05:48:31;;;;;;;9.45;5.10;;;;;;;;;;4967853;28;20039;-68
2021/09/13 05:50:59;;;;;;;11.05;5.15;;;;;;;;;;4967107;28;20043;-68
2021/09/13 05:53:28;;;;;;;8.05;4.88;;;;;;;;;;4966885;28;20129;-68
2021/09/13 05:55:56;;;;;;;9.27;5.20;;;;;;;;;;4967520;28;20039;-68
2021/09/13 05:58:24;;;;;;;7.97;4.90;;;;;;;;;;4967680;28;20474;-68
2021/09/13 06:00:54;;;;;;;9.32;4.80;;;;;;;;;;4967472;28;20495;-68
2021/09/13 06:03:22;;;;;;;7.07;4.65;;;;;;;;;;4966033;28;20054;-68
2021/09/13 06:05:51;;;;;;;9.52;5.05;;;;;;;;;;4968459;28;20121;-68
2021/09/13 06:08:19;;;;;;;11.75;5.15;;;;;;;;;;4965089;28;20074;-68
2021/09/13 06:10:47;;;;;;;8.82;5.25;;;;;;;;;;4967197;28;20097;-68
2021/09/13 06:13:16;;;;;;;9.27;5.20;;;;;;;;;;4967150;28;20126;-68
2021/09/13 06:15:44;;;;;;;10.13;5.38;;;;;;;;;;4967006;28;20137;-68
2021/09/13 06:18:21;;;;;;;8.13;5.13;;;;;;;;;;4966385;28;20050;-68
2021/09/13 06:20:50;;;;;;;8.52;4.43;;;;;;;;;;4954720;28;20141;-68
2021/09/13 06:23:18;;;;;;;8.52;5.00;;;;;;;;;;4953474;28;20137;-68
2021/09/13 06:25:46;;;;;;;7.88;4.72;;;;;;;;;;4971195;28;20047;-68
2021/09/13 06:28:14;;;;;;;11.07;5.43;;;;;;;;;;4970120;28;20149;-68
2021/09/13 06:30:43;;;;;;;11.02;6.53;;;;;;;;;;4980475;28;20105;-68
2021/09/13 06:33:12;;;;;;;10.65;6.47;;;;;;;;;;4973794;28;20517;-68
2021/09/13 06:35:41;;;;;;;10.77;6.32;;;;;;;;;;4970422;28;20142;-68
2021/09/13 06:38:10;;;;;;;12.25;5.90;;;;;;;;;;4969852;28;20157;-68
2021/09/13 06:40:39;;;;;;;10.20;6.75;;;;;;;;;;4969883;28;20625;-68
2021/09/13 06:43:09;;;;;;;10.05;6.50;;;;;;;;;;4963644;28;20059;-68
2021/09/13 06:45:42;;;;;;;12.75;6.55;;;;;;;;;;4968776;28;20806;-68
2021/09/13 06:48:11;;;;;;;9.00;6.13;;;;;;;;;;4954322;28;20054;-68
2021/09/13 06:50:40;;;;;;;15.07;7.28;;;;;;;;;;4969094;28;20566;-68
2021/09/13 06:53:11;;;;;;;14.38;7.45;;;;;;;;;;4969847;28;20094;-69
2021/09/13 06:55:40;;;;;;;12.55;7.13;;;;;;;;;;4969317;28;20047;-68
2021/09/13 06:58:09;;;;;;;11.98;7.32;;;;;;;;;;4964074;28;20486;-68
2021/09/13 07:00:38;;;;;;;13.48;7.45;;;;;;;;;;4968410;28;20053;-68
2021/09/13 07:03:07;;;;;;;13.63;7.80;;;;;;;;;;4968406;28;20047;-69
2021/09/13 07:05:36;;;;;;;13.20;7.85;;;;;;;;;;4949781;28;20055;-68
2021/09/13 07:08:05;;;;;;;14.73;8.30;;;;;;;;;;4950035;29;20070;-68
2021/09/13 07:10:35;;;;;;;11.35;7.30;;;;;;;;;;4949934;28;20059;-68
2021/09/13 07:13:04;;;;;;;12.13;6.82;;;;;;;;;;4950721;29;20098;-68
2021/09/13 07:15:33;;;;;;;13.65;7.30;;;;;;;;;;4968877;28;20317;-68
2021/09/13 07:18:01;;;;;;;14.40;8.20;;;;;;;;;;4962463;28;20158;-68
2021/09/13 07:20:30;;;;;;;13.55;7.80;;;;;;;;;;4969448;28;20474;-68
2021/09/13 07:22:59;;;;;;;14.23;7.50;;;;;;;;;;4971540;28;20059;-69
2021/09/13 07:25:27;;;;;;;12.60;7.10;;;;;;;;;;4972222;28;20077;-68
2021/09/13 07:27:57;;;;;;;13.63;7.57;;;;;;;;;;4968754;28;20146;-68
2021/09/13 07:30:27;;;;;;;13.95;7.03;;;;;;;;;;4962028;28;20047;-68
2021/09/13 07:32:56;;;;;;;13.45;7.20;;;;;;;;;;4952077;28;20055;-68
2021/09/13 07:35:25;;;;;;;11.93;6.93;;;;;;;;;;4964877;28;20581;-68
2021/09/13 07:37:54;;;;;;;13.57;6.82;;;;;;;;;;4964251;28;20759;-68
2021/09/13 07:40:23;;;;;;;11.07;6.82;;;;;;;;;;4969618;28;20055;-68
2021/09/13 07:42:53;;;;;;;14.02;6.70;;;;;;;;;;4967724;28;20561;-68
2021/09/13 07:45:24;;;;;;;10.98;6.80;;;;;;;;;;4969673;28;20245;-68
2021/09/13 07:47:53;;;;;;;11.73;6.78;;;;;;;;;;4969722;28;20054;-68
2021/09/13 07:50:22;;;;;;;9.35;6.00;;;;;;;;;;4969807;28;20110;-68
2021/09/13 07:52:51;;;;;;;12.73;6.65;;;;;;;;;;4971346;28;20054;-68
2021/09/13 07:55:20;;;;;;;9.43;5.82;;;;;;;;;;4970774;28;20059;-68
2021/09/13 07:57:49;;;;;;;12.52;6.38;;;;;;;;;;4962554;28;20043;-68
2021/09/13 08:00:32;;;;;;;9.18;5.90;;;;;;;;;;4971030;28;20050;-68
2021/09/13 08:03:01;;;;;;;13.68;6.97;;;;;;;;;;4971281;28;20049;-68
2021/09/13 08:05:31;;;;;;;11.20;6.72;;;;;;;;;;4950826;29;20057;-68
2021/09/13 08:08:00;;;;;;;11.55;6.40;;;;;;;;;;4951714;29;20466;-68
2021/09/13 08:10:29;;;;;;;9.77;5.32;;;;;;;;;;4950807;28;20047;-68
2021/09/13 08:12:57;;;;;;;11.68;6.00;;;;;;;;;;4952199;28;20049;-69
2021/09/13 08:15:27;;;;;;;11.05;5.45;;;;;;;;;;4927624;28;20515;-68
2021/09/13 08:17:57;;;;;;;8.45;5.35;;;;;;;;;;4911946;29;20055;-68
2021/09/13 08:20:26;;;;;;;9.60;5.65;;;;;;;;;;4921420;29;20083;-68
2021/09/13 08:22:56;;;;;;;9.65;5.60;;;;;;;;;;4926522;29;20062;-68
2021/09/13 08:25:24;;;;;;;11.27;6.28;;;;;;;;;;4934791;29;20490;-68
2021/09/13 08:27:53;;;;;;;10.13;5.90;;;;;;;;;;4950150;29;20388;-68
2021/09/13 08:30:22;;;;;;;10.20;5.93;;;;;;;;;;4957545;28;20510;-68
2021/09/13 08:32:51;;;;;;;7.20;4.90;;;;;;;;;;4971718;28;20050;-68
2021/09/13 08:35:21;;;;;;;8.82;4.82;;;;;;;;;;4957240;28;20045;-68
2021/09/13 08:37:50;;;;;;;8.73;4.68;;;;;;;;;;4946792;29;20047;-68
2021/09/13 08:40:19;;;;;;;7.28;4.50;;;;;;;;;;4950959;29;20062;-68
2021/09/13 08:42:49;;;;;;;7.72;5.03;;;;;;;;;;4951856;28;20892;-68
2021/09/13 08:45:23;;;;;;;6.55;4.10;;;;;;;;;;4950526;28;20051;-68
2021/09/13 08:48:08;;;;;;;6.75;4.00;;;;;;;;;;4950582;29;20488;-68
2021/09/13 08:51:03;;;;;;;9.52;4.50;;;;;;;;;;4950082;28;20106;-68
2021/09/13 08:53:35;;;;;;;13.68;6.03;;;;;;;;;;4951382;28;20074;-68
2021/09/13 08:56:05;;;;;;;6.47;4.30;;;;;;;;;;4952015;29;20502;-68
2021/09/13 08:58:34;;;;;;;4.40;3.30;;;;;;;;;;4952627;28;20055;-68
2021/09/13 09:01:03;;;;;;;6.78;4.32;;;;;;;;;;4952086;29;20460;-68
2021/09/13 09:03:32;;;;;;;6.85;4.38;;;;;;;;;;4955098;28;20062;-68
2021/09/13 09:06:03;;;;;;;5.15;3.80;;;;;;;;;;4971385;28;20129;-68
2021/09/13 09:08:34;;;;;;;12.25;4.80;;;;;;;;;;4970512;28;20054;-68
2021/09/13 09:11:03;;;;;;;5.93;3.85;;;;;;;;;;4970523;28;20047;-68
2021/09/13 09:13:37;;;;;;;9.50;4.43;;;;;;;;;;4971077;28;20043;-68
2021/09/13 09:16:06;;;;;;;9.50;4.65;;;;;;;;;;4971092;28;20517;-68
2021/09/13 09:18:39;;;;;;;5.93;3.85;;;;;;;;;;4970666;28;20138;-67
2021/09/13 09:21:10;;;;;;;7.50;3.97;;;;;;;;;;4968315;28;20518;-68
2021/09/13 09:23:57;;;;;;;6.80;3.85;;;;;;;;;;4967727;28;20563;-69
2021/09/13 09:26:26;;;;;;;6.18;3.58;;;;;;;;;;4968534;28;20447;-68
2021/09/13 09:28:56;;;;;;;7.80;3.88;;;;;;;;;;4969778;28;20419;-68
2021/09/13 09:31:38;;;;;;;5.35;3.90;;;;;;;;;;4969499;28;20054;-68
2021/09/13 09:34:14;;;;;;;6.75;3.70;;;;;;;;;;4968694;28;20050;-68
2021/09/13 09:37:03;;;;;;;6.38;4.18;;;;;;;;;;4968403;28;20054;-68
2021/09/13 09:39:33;;;;;;;7.88;3.53;;;;;;;;;;4968618;28;20090;-68
2021/09/13 09:42:02;;;;;;;6.35;3.70;;;;;;;;;;4968591;28;20069;-68
2021/09/13 09:44:32;;;;;;;7.38;3.10;;;;;;;;;;4968061;28;20058;-68
2021/09/13 09:47:06;;;;;;;4.03;2.88;;;;;;;;;;4965428;28;20117;-68
2021/09/13 09:49:41;;;;;;;4.25;2.95;;;;;;;;;;4967282;28;20101;-68
2021/09/13 09:52:11;;;;;;;4.57;3.08;;;;;;;;;;4967306;28;20055;-70
2021/09/13 09:54:42;;;;;;;6.13;2.85;;;;;;;;;;4967401;28;20054;-69
2021/09/13 09:57:11;;;;;;;4.93;2.88;;;;;;;;;;4970333;28;20051;-69
2021/09/13 09:59:40;;;;;;;5.88;3.38;;;;;;;;;;4970545;28;20059;-69
2021/09/13 10:02:14;;;;;;;5.05;3.33;;;;;;;;;;4967368;28;20418;-69
2021/09/13 10:04:43;;;;;;;8.32;3.40;;;;;;;;;;4970472;28;20059;-68
2021/09/13 10:07:14;;;;;;;6.57;3.80;;;;;;;;;;4954737;28;20047;-68
2021/09/13 10:09:43;;;;;;;6.07;3.95;;;;;;;;;;4970266;28;20054;-68
2021/09/13 10:12:12;;;;;;;5.90;3.50;;;;;;;;;;4973621;28;20054;-68
2021/09/13 10:14:42;;;;;;;5.90;3.42;;;;;;;;;;4972572;28;20130;-68
2021/09/13 10:17:11;;;;;;;5.47;3.53;;;;;;;;;;4973323;28;20046;-68
2021/09/13 10:19:52;;;;;;;5.18;3.33;;;;;;;;;;4972634;28;20062;-68
2021/09/13 10:22:22;;;;;;;5.15;3.15;;;;;;;;;;4971227;28;20125;-69
2021/09/13 10:24:50;;;;;;;4.75;3.35;;;;;;;;;;4965470;28;20066;-68
2021/09/13 10:27:20;;;;;;;5.40;3.20;;;;;;;;;;4961816;28;20105;-69
2021/09/13 10:29:49;;;;;;;4.70;3.35;;;;;;;;;;4977417;28;20062;-68
2021/09/13 10:32:25;;;;;;;4.45;3.53;;;;;;;;;;4976275;28;20054;-69
2021/09/13 10:34:53;;;;;;;;;;;;;;;;;;4973033;28;20518;-68
2021/09/13 10:37:24;;;;;;;6.22;3.65;;;;;;;;;;4972037;28;20302;-68
2021/09/13 10:40:02;;;;;;;3.90;3.15;;;;;;;;;;4974624;28;20055;-68
2021/09/13 10:42:33;;;;;;;5.47;3.65;;;;;;;;;;4971696;28;20054;-68
2021/09/13 10:45:09;;;;;;;5.53;3.47;;;;;;;;;;4967078;28;20090;-68
2021/09/13 10:47:37;;;;;;;5.50;4.00;;;;;;;;;;4972391;28;20557;-68
2021/09/13 10:50:13;;;;;;;6.68;3.67;;;;;;;;;;4974499;28;20106;-68
2021/09/13 10:52:42;;;;;;;5.03;3.30;;;;;;;;;;4973016;28;20485;-68
2021/09/13 10:55:18;;;;;;;6.45;2.97;;;;;;;;;;4971796;28;20161;-68
2021/09/13 10:58:12;;;;;;;6.35;3.95;;;;;;;;;;4971392;28;20086;-68
2021/09/13 11:01:00;;;;;;;4.63;3.30;;;;;;;;;;4971168;28;20050;-68
2021/09/13 11:03:36;;;;;;;5.05;3.25;;;;;;;;;;4969819;28;20111;-68
2021/09/13 11:06:20;;;;;;;3.78;2.92;;;;;;;;;;4971419;28;20046;-68
2021/09/13 11:08:51;;;;;;;6.43;3.88;;;;;;;;;;4956070;28;20062;-68
2021/09/13 11:11:20;;;;;;;6.07;3.30;;;;;;;;;;4972433;28;20101;-68
2021/09/13 11:13:59;;;;;;;4.28;2.88;;;;;;;;;;4973967;28;20054;-68
2021/09/13 11:16:29;;;;;;;7.03;3.63;;;;;;;;;;4972779;28;20055;-68
2021/09/13 11:18:57;;;;;;;4.78;3.42;;;;;;;;;;4953344;28;20055;-68
2021/09/13 11:21:27;;;;;;;4.05;3.03;;;;;;;;;;4952124;29;20468;-68
2021/09/13 11:23:58;;;;;;;3.72;2.85;;;;;;;;;;4964731;28;20061;-68
2021/09/13 11:26:30;;;;;;;5.32;2.80;;;;;;;;;;4952907;29;20043;-68
2021/09/13 11:29:00;;;;;;;4.60;3.53;;;;;;;;;;4954019;29;20051;-68
2021/09/13 11:31:30;;;;;;;4.70;3.47;;;;;;;;;;4962357;28;20051;-68
2021/09/13 11:33:59;;;;;;;3.42;2.95;;;;;;;;;;4955704;28;20055;-67
2021/09/13 11:36:28;;;;;;;3.70;2.80;;;;;;;;;;4954434;29;20047;-68
2021/09/13 11:39:00;;;;;;;5.07;3.03;;;;;;;;;;4955873;29;20085;-68
2021/09/13 11:41:29;;;;;;;3.47;2.92;;;;;;;;;;4949704;29;20086;-68
2021/09/13 11:44:02;;;;;;;4.80;2.90;;;;;;;;;;4947588;28;20059;-68
2021/09/13 11:46:31;;;;;;;4.97;2.75;;;;;;;;;;4954557;29;20428;-68
2021/09/13 11:49:16;;;;;;;4.28;2.67;;;;;;;;;;4955767;29;20102;-69
2021/09/13 11:52:00;;;;;;;5.88;3.50;;;;;;;;;;4955770;29;20114;-68
2021/09/13 11:54:30;;;;;;;4.35;3.17;;;;;;;;;;4954726;28;20137;-68
2021/09/13 11:56:58;;;;;;;4.85;3.25;;;;;;;;;;4951434;28;20082;-68
2021/09/13 11:59:31;;;;;;;6.88;3.28;;;;;;;;;;4955664;28;20051;-68
2021/09/13 12:01:59;;;;;;;4.07;3.05;;;;;;;;;;4956002;28;20054;-68
2021/09/13 12:04:29;;;;;;;3.97;2.80;;;;;;;;;;4961154;28;20154;-68
2021/09/13 12:07:08;;;;;;;4.20;2.72;;;;;;;;;;4958715;28;20074;-68
2021/09/13 12:09:39;;;;;;;4.60;2.83;;;;;;;;;;4973541;28;20478;-68
2021/09/13 12:12:08;;;;;;;5.75;2.90;;;;;;;;;;4973467;28;20077;-68
2021/09/13 12:14:40;;;;;;;5.13;2.95;;;;;;;;;;4972799;28;20050;-68
2021/09/13 12:17:09;;;;;;;3.78;2.55;;;;;;;;;;4973375;28;20047;-68
2021/09/13 12:19:39;;;;;;;4.88;2.75;;;;;;;;;;4973862;28;20051;-68
2021/09/13 12:22:08;;;;;;;5.07;2.97;;;;;;;;;;4974446;28;20055;-68
2021/09/13 12:24:42;;;;;;;4.22;2.67;;;;;;;;;;4964352;28;20054;-68
2021/09/13 12:27:22;;;;;;;4.47;3.00;;;;;;;;;;4954175;28;20055;-68
2021/09/13 12:30:01;;;;;;;3.85;2.83;;;;;;;;;;4967815;28;20057;-68
2021/09/13 12:32:32;;;;;;;4.18;2.80;;;;;;;;;;4993171;28;20125;-67
2021/09/13 12:35:02;;;;;;;3.38;2.55;;;;;;;;;;4976581;28;20492;-67
2021/09/13 12:37:33;;;;;;;4.72;2.85;;;;;;;;;;4972220;28;20050;-68
2021/09/13 12:40:18;;;;;;;4.68;2.65;;;;;;;;;;4965501;28;20047;-67
2021/09/13 12:42:54;;;;;;;5.53;3.00;;;;;;;;;;4973579;28;20057;-67
2021/09/13 12:45:23;;;;;;;4.20;2.67;;;;;;;;;;4958404;28;20078;-65
2021/09/13 12:47:56;;;;;;;4.60;2.45;;;;;;;;;;4975068;28;20152;-65
2021/09/13 12:50:33;;;;;;;3.78;2.78;;;;;;;;;;4973417;28;20079;-66
2021/09/13 12:53:03;;;;;;;3.53;2.65;;;;;;;;;;4963331;28;20105;-65
2021/09/13 12:55:38;;;;;;;3.13;2.83;;;;;;;;;;4972788;28;20102;-66
2021/09/13 12:58:21;;;;;;;3.88;2.67;;;;;;;;;;4973977;28;20054;-65
2021/09/13 13:00:50;;;;;;;3.85;2.90;;;;;;;;;;4969794;28;20043;-65
2021/09/13 13:03:19;;;;;;;3.40;2.72;;;;;;;;;;4972645;28;20484;-66
2021/09/13 13:05:50;;;;;;;3.75;2.78;;;;;;;;;;4973236;28;20057;-66
2021/09/13 13:08:19;;;;;;;3.88;2.90;;;;;;;;;;4974291;28;20414;-65
2021/09/13 13:10:48;;;;;;;4.55;3.17;;;;;;;;;;4974521;28;20069;-66
2021/09/13 13:13:17;;;;;;;3.63;2.40;;;;;;;;;;4962885;28;20047;-66
2021/09/13 13:15:46;;;;;;;3.22;2.70;;;;;;;;;;4962767;28;20090;-66
2021/09/13 13:18:22;;;;;;;5.63;3.33;;;;;;;;;;4973056;28;20082;-66
2021/09/13 13:20:52;;;;;;;3.78;2.55;;;;;;;;;;4972879;28;20129;-65
2021/09/13 13:23:22;;;;;;;2.80;2.28;;;;;;;;;;4966320;28;20047;-66
2021/09/13 13:25:52;;;;;;;4.20;3.20;;;;;;;;;;4953394;29;20077;-66
2021/09/13 13:28:22;;;;;;;4.57;3.25;;;;;;;;;;4958249;28;20066;-65
2021/09/13 13:30:51;;;;;;;3.65;2.50;;;;;;;;;;4966326;28;20415;-66
2021/09/13 13:33:21;;;;;;;4.05;2.70;;;;;;;;;;4972575;28;20046;-66
2021/09/13 13:35:50;;;;;;;2.90;2.50;;;;;;;;;;4973549;28;20046;-66
2021/09/13 13:38:19;;;;;;;3.15;2.85;;;;;;;;;;4974249;28;20133;-66
2021/09/13 13:40:48;;;;;;;3.58;2.53;;;;;;;;;;4974125;28;20054;-66
2021/09/13 13:43:18;;;;;;;3.58;2.55;;;;;;;;;;4973910;28;20471;-66
2021/09/13 13:45:46;;;;;;;4.82;2.47;;;;;;;;;;4972001;28;20070;-69
2021/09/13 13:48:15;;;;;;;4.50;2.78;;;;;;;;;;4964939;28;20046;-69
2021/09/13 13:50:43;;;;;;;3.00;2.63;;;;;;;;;;4966163;28;20055;-69
2021/09/13 13:53:12;;;;;;;3.72;2.88;;;;;;;;;;4969071;28;20065;-69
2021/09/13 13:55:41;;;;;;;5.65;3.38;;;;;;;;;;4967791;28;20043;-68
2021/09/13 13:58:09;;;;;;;4.78;2.85;;;;;;;;;;4970977;28;20059;-68
2021/09/13 14:00:39;;;;;;;3.72;2.72;;;;;;;;;;4971459;28;20066;-68
2021/09/13 14:03:08;;;;;;;4.13;2.22;;;;;;;;;;4966014;28;20411;-69
2021/09/13 14:05:37;;;;;;;3.55;2.45;;;;;;;;;;4966908;28;20563;-68
2021/09/13 14:08:07;;;;;;;5.68;2.83;;;;;;;;;;4951516;28;20123;-68
2021/09/13 14:10:35;;;;;;;3.00;2.40;;;;;;;;;;4965248;28;20046;-68
2021/09/13 14:13:04;;;;;;;4.00;2.88;;;;;;;;;;4969992;28;20117;-68
2021/09/13 14:15:33;;;;;;;3.00;2.50;;;;;;;;;;4963869;28;20143;-69
2021/09/13 14:18:03;;;;;;;3.33;2.72;;;;;;;;;;4969796;28;20046;-68
2021/09/13 14:20:32;;;;;;;3.70;2.50;;;;;;;;;;4971505;28;20065;-69
2021/09/13 14:23:02;;;;;;;3.65;2.83;;;;;;;;;;4971310;28;20419;-68
2021/09/13 14:25:34;;;;;;;6.25;2.85;;;;;;;;;;4971153;28;20059;-68
2021/09/13 14:28:02;;;;;;;3.55;2.40;;;;;;;;;;4956634;28;20579;-69
2021/09/13 14:30:31;;;;;;;3.45;2.40;;;;;;;;;;4969572;28;20046;-68
2021/09/13 14:32:59;;;;;;;3.15;2.13;;;;;;;;;;4971376;28;20047;-68
2021/09/13 14:35:30;;;;;;;2.97;2.63;;;;;;;;;;4971618;28;20066;-69
2021/09/13 14:37:58;;;;;;;4.50;3.08;;;;;;;;;;4971954;28;20391;-68
2021/09/13 14:40:27;;;;;;;4.78;2.53;;;;;;;;;;4971720;28;20483;-68
2021/09/13 14:42:56;;;;;;;3.65;2.60;;;;;;;;;;4966214;28;20057;-68
2021/09/13 14:45:24;;;;;;;3.38;2.42;;;;;;;;;;4972896;28;20082;-68
2021/09/13 14:47:52;;;;;;;2.60;2.30;;;;;;;;;;4972646;28;20109;-68
2021/09/13 14:50:21;;;;;;;3.17;2.45;;;;;;;;;;4974600;28;20047;-68
2021/09/13 14:52:51;;;;;;;4.15;2.10;;;;;;;;;;4974491;28;20439;-68
2021/09/13 14:55:19;;;;;;;4.97;2.33;;;;;;;;;;4974408;28;20138;-68
2021/09/13 14:57:47;;;;;;;3.28;2.65;;;;;;;;;;4973612;28;20099;-68
2021/09/13 15:00:16;;;;;;;16.45;2.78;;;;;;;;;;4973200;28;20538;-68